sensor_id;sensor_type;location;lat;lon;timestamp;temperature;humidity
11079;DHT22;5592;49.234;7.268;2023-06-04T00:00:46;13.20;99.90
11079;DHT22;5592;49.234;7.268;2023-06-04T00:03:12;13.10;99.90
11079;DHT22;5592;49.234;7.268;2023-06-04T00:05:38;13.10;99.90
11079;DHT22;5592;49.234;7.268;2023-06-04T00:08:03;13.00;99.90
11079;DHT22;5592;49.234;7.268;2023-06-04T00:10:29;12.90;99.90
11079;DHT22;5592;49.234;7.268;2023-06-04T00:12:54;12.80;99.90
11079;DHT22;5592;49.234;7.268;2023-06-04T00:15:20;12.80;99.90
11079;DHT22;5592;49.234;7.268;2023-06-04T00:17:46;12.60;99.90
11079;DHT22;5592;49.234;7.268;2023-06-04T00:20:11;12.50;99.90
11079;DHT22;5592;49.234;7.268;2023-06-04T00:22:37;12.40;99.90
11079;DHT22;5592;49.234;7.268;2023-06-04T00:25:03;12.30;99.90
11079;DHT22;5592;49.234;7.268;2023-06-04T00:27:29;12.10;99.90
11079;DHT22;5592;49.234;7.268;2023-06-04T00:29:54;11.90;99.90
11079;DHT22;5592;49.234;7.268;2023-06-04T00:32:20;11.80;99.90
11079;DHT22;5592;49.234;7.268;2023-06-04T00:34:54;11.60;99.90
11079;DHT22;5592;49.234;7.268;2023-06-04T00:37:22;11.50;99.90
11079;DHT22;5592;49.234;7.268;2023-06-04T00:39:48;11.40;99.90
11079;DHT22;5592;49.234;7.268;2023-06-04T00:42:16;11.30;99.90
11079;DHT22;5592;49.234;7.268;2023-06-04T00:44:42;11.20;99.90
11079;DHT22;5592;49.234;7.268;2023-06-04T00:47:17;11.20;99.90
11079;DHT22;5592;49.234;7.268;2023-06-04T00:49:44;11.10;99.90
11079;DHT22;5592;49.234;7.268;2023-06-04T00:52:10;11.00;99.90
11079;DHT22;5592;49.234;7.268;2023-06-04T00:54:38;11.00;99.90
11079;DHT22;5592;49.234;7.268;2023-06-04T00:57:04;10.90;99.90
11079;DHT22;5592;49.234;7.268;2023-06-04T00:59:32;10.80;99.90
11079;DHT22;5592;49.234;7.268;2023-06-04T01:02:07;10.80;99.90
11079;DHT22;5592;49.234;7.268;2023-06-04T01:04:59;10.90;99.90
11079;DHT22;5592;49.234;7.268;2023-06-04T01:07:27;10.90;99.90
11079;DHT22;5592;49.234;7.268;2023-06-04T01:09:56;10.90;99.90
11079;DHT22;5592;49.234;7.268;2023-06-04T01:12:22;11.00;99.90
11079;DHT22;5592;49.234;7.268;2023-06-04T01:14:48;11.00;99.90
11079;DHT22;5592;49.234;7.268;2023-06-04T01:17:41;10.90;99.90
11079;DHT22;5592;49.234;7.268;2023-06-04T01:20:26;10.80;99.90
11079;DHT22;5592;49.234;7.268;2023-06-04T01:25:43;10.60;99.90
11079;DHT22;5592;49.234;7.268;2023-06-04T01:28:15;10.60;99.90
11079;DHT22;5592;49.234;7.268;2023-06-04T01:30:46;10.60;99.90
11079;DHT22;5592;49.234;7.268;2023-06-04T01:33:15;10.80;99.90
11079;DHT22;5592;49.234;7.268;2023-06-04T01:35:41;10.70;99.90
11079;DHT22;5592;49.234;7.268;2023-06-04T01:38:07;10.70;99.90
11079;DHT22;5592;49.234;7.268;2023-06-04T01:40:32;10.70;99.90
11079;DHT22;5592;49.234;7.268;2023-06-04T01:42:58;10.60;99.90
11079;DHT22;5592;49.234;7.268;2023-06-04T01:45:26;10.50;99.90
11079;DHT22;5592;49.234;7.268;2023-06-04T01:47:52;10.50;99.90
11079;DHT22;5592;49.234;7.268;2023-06-04T01:50:18;10.40;99.90
11079;DHT22;5592;49.234;7.268;2023-06-04T01:52:44;10.40;99.90
11079;DHT22;5592;49.234;7.268;2023-06-04T01:55:11;10.30;99.90
11079;DHT22;5592;49.234;7.268;2023-06-04T01:57:41;10.30;99.90
11079;DHT22;5592;49.234;7.268;2023-06-04T02:00:11;10.40;99.90
11079;DHT22;5592;49.234;7.268;2023-06-04T02:02:37;10.50;99.90
11079;DHT22;5592;49.234;7.268;2023-06-04T02:05:06;10.50;99.90
11079;DHT22;5592;49.234;7.268;2023-06-04T02:07:37;10.30;99.90
11079;DHT22;5592;49.234;7.268;2023-06-04T02:10:24;10.40;99.90
11079;DHT22;5592;49.234;7.268;2023-06-04T02:12:55;10.30;99.90
11079;DHT22;5592;49.234;7.268;2023-06-04T02:15:22;10.10;99.90
11079;DHT22;5592;49.234;7.268;2023-06-04T02:17:48;10.10;99.90
11079;DHT22;5592;49.234;7.268;2023-06-04T02:20:16;10.10;99.90
11079;DHT22;5592;49.234;7.268;2023-06-04T02:22:42;10.10;99.90
11079;DHT22;5592;49.234;7.268;2023-06-04T02:25:08;10.00;99.90
11079;DHT22;5592;49.234;7.268;2023-06-04T02:27:37;10.00;99.90
11079;DHT22;5592;49.234;7.268;2023-06-04T02:30:03;10.00;99.90
11079;DHT22;5592;49.234;7.268;2023-06-04T02:32:29;10.10;99.90
11079;DHT22;5592;49.234;7.268;2023-06-04T02:34:55;10.20;99.90
11079;DHT22;5592;49.234;7.268;2023-06-04T02:37:21;10.20;99.90
11079;DHT22;5592;49.234;7.268;2023-06-04T02:39:46;10.30;99.90
11079;DHT22;5592;49.234;7.268;2023-06-04T02:42:12;10.20;99.90
11079;DHT22;5592;49.234;7.268;2023-06-04T02:44:37;10.10;99.90
11079;DHT22;5592;49.234;7.268;2023-06-04T02:47:03;9.90;99.90
11079;DHT22;5592;49.234;7.268;2023-06-04T02:49:29;9.80;99.90
11079;DHT22;5592;49.234;7.268;2023-06-04T02:51:54;9.70;99.90
11079;DHT22;5592;49.234;7.268;2023-06-04T02:54:20;9.60;99.90
11079;DHT22;5592;49.234;7.268;2023-06-04T02:56:45;9.50;99.90
11079;DHT22;5592;49.234;7.268;2023-06-04T02:59:11;9.40;99.90
11079;DHT22;5592;49.234;7.268;2023-06-04T03:01:36;9.30;99.90
11079;DHT22;5592;49.234;7.268;2023-06-04T03:04:02;9.20;99.90
11079;DHT22;5592;49.234;7.268;2023-06-04T03:06:30;9.10;99.90
11079;DHT22;5592;49.234;7.268;2023-06-04T03:08:57;9.00;99.90
11079;DHT22;5592;49.234;7.268;2023-06-04T03:11:23;9.00;99.90
11079;DHT22;5592;49.234;7.268;2023-06-04T03:13:49;9.00;99.90
11079;DHT22;5592;49.234;7.268;2023-06-04T03:16:15;9.00;99.90
11079;DHT22;5592;49.234;7.268;2023-06-04T03:18:41;9.00;99.90
11079;DHT22;5592;49.234;7.268;2023-06-04T03:21:07;8.90;99.90
11079;DHT22;5592;49.234;7.268;2023-06-04T03:23:34;8.90;99.90
11079;DHT22;5592;49.234;7.268;2023-06-04T03:26:04;8.80;99.90
11079;DHT22;5592;49.234;7.268;2023-06-04T03:28:31;8.80;99.90
11079;DHT22;5592;49.234;7.268;2023-06-04T03:30:58;8.80;99.90
11079;DHT22;5592;49.234;7.268;2023-06-04T03:33:24;8.80;99.90
11079;DHT22;5592;49.234;7.268;2023-06-04T03:35:52;8.90;99.90
11079;DHT22;5592;49.234;7.268;2023-06-04T03:38:21;8.80;99.90
11079;DHT22;5592;49.234;7.268;2023-06-04T03:40:46;8.90;99.90
11079;DHT22;5592;49.234;7.268;2023-06-04T03:43:12;8.90;99.90
11079;DHT22;5592;49.234;7.268;2023-06-04T03:45:37;8.90;99.90
11079;DHT22;5592;49.234;7.268;2023-06-04T03:48:03;8.80;99.90
11079;DHT22;5592;49.234;7.268;2023-06-04T03:50:29;8.90;99.90
11079;DHT22;5592;49.234;7.268;2023-06-04T03:52:55;8.90;99.90
11079;DHT22;5592;49.234;7.268;2023-06-04T03:55:21;8.90;99.90
11079;DHT22;5592;49.234;7.268;2023-06-04T03:57:46;8.90;99.90
11079;DHT22;5592;49.234;7.268;2023-06-04T04:00:13;8.90;99.90
11079;DHT22;5592;49.234;7.268;2023-06-04T04:02:42;8.90;99.90
11079;DHT22;5592;49.234;7.268;2023-06-04T04:05:08;9.00;99.90
11079;DHT22;5592;49.234;7.268;2023-06-04T04:07:34;9.00;99.90
11079;DHT22;5592;49.234;7.268;2023-06-04T04:10:00;9.10;99.90
11079;DHT22;5592;49.234;7.268;2023-06-04T04:12:26;9.20;99.90
11079;DHT22;5592;49.234;7.268;2023-06-04T04:14:51;9.30;99.90
11079;DHT22;5592;49.234;7.268;2023-06-04T04:17:17;9.40;99.90
11079;DHT22;5592;49.234;7.268;2023-06-04T04:19:42;9.50;99.90
11079;DHT22;5592;49.234;7.268;2023-06-04T04:22:10;9.60;99.90
11079;DHT22;5592;49.234;7.268;2023-06-04T04:24:36;9.70;99.90
11079;DHT22;5592;49.234;7.268;2023-06-04T04:27:03;9.80;99.90
11079;DHT22;5592;49.234;7.268;2023-06-04T04:29:30;10.00;99.90
11079;DHT22;5592;49.234;7.268;2023-06-04T04:31:58;10.10;99.90
11079;DHT22;5592;49.234;7.268;2023-06-04T04:34:26;10.30;99.90
11079;DHT22;5592;49.234;7.268;2023-06-04T04:36:52;10.40;99.90
11079;DHT22;5592;49.234;7.268;2023-06-04T04:39:24;10.60;99.90
11079;DHT22;5592;49.234;7.268;2023-06-04T04:41:50;10.90;99.90
11079;DHT22;5592;49.234;7.268;2023-06-04T04:44:16;11.20;99.90
11079;DHT22;5592;49.234;7.268;2023-06-04T04:46:42;11.40;99.90
11079;DHT22;5592;49.234;7.268;2023-06-04T04:49:07;11.80;99.90
11079;DHT22;5592;49.234;7.268;2023-06-04T04:51:33;12.10;99.90
11079;DHT22;5592;49.234;7.268;2023-06-04T04:53:59;12.80;99.90
11079;DHT22;5592;49.234;7.268;2023-06-04T04:56:28;13.70;99.90
11079;DHT22;5592;49.234;7.268;2023-06-04T04:58:54;14.90;99.90
11079;DHT22;5592;49.234;7.268;2023-06-04T05:01:21;16.00;99.90
11079;DHT22;5592;49.234;7.268;2023-06-04T05:03:46;17.20;99.90
11079;DHT22;5592;49.234;7.268;2023-06-04T05:06:12;18.40;99.90
11079;DHT22;5592;49.234;7.268;2023-06-04T05:08:38;19.20;99.90
11079;DHT22;5592;49.234;7.268;2023-06-04T05:11:04;19.90;99.90
11079;DHT22;5592;49.234;7.268;2023-06-04T05:13:29;20.80;99.90
11079;DHT22;5592;49.234;7.268;2023-06-04T05:15:55;21.50;99.90
11079;DHT22;5592;49.234;7.268;2023-06-04T05:18:20;21.90;99.90
11079;DHT22;5592;49.234;7.268;2023-06-04T05:20:46;22.10;99.40
11079;DHT22;5592;49.234;7.268;2023-06-04T05:23:12;22.70;97.60
11079;DHT22;5592;49.234;7.268;2023-06-04T05:25:38;23.30;95.90
11079;DHT22;5592;49.234;7.268;2023-06-04T05:28:05;23.50;92.30
11079;DHT22;5592;49.234;7.268;2023-06-04T05:30:32;23.70;91.30
11079;DHT22;5592;49.234;7.268;2023-06-04T05:32:59;23.90;90.30
11079;DHT22;5592;49.234;7.268;2023-06-04T05:35:25;24.00;86.90
11079;DHT22;5592;49.234;7.268;2023-06-04T05:37:50;24.50;89.90
11079;DHT22;5592;49.234;7.268;2023-06-04T05:40:22;24.90;87.90
11079;DHT22;5592;49.234;7.268;2023-06-04T05:42:48;25.30;81.10
11079;DHT22;5592;49.234;7.268;2023-06-04T05:45:13;25.80;79.50
11079;DHT22;5592;49.234;7.268;2023-06-04T05:47:39;26.00;77.80
11079;DHT22;5592;49.234;7.268;2023-06-04T05:50:05;26.30;75.70
11079;DHT22;5592;49.234;7.268;2023-06-04T05:52:32;26.60;73.80
11079;DHT22;5592;49.234;7.268;2023-06-04T05:54:58;26.80;71.60
11079;DHT22;5592;49.234;7.268;2023-06-04T05:57:24;27.30;72.70
11079;DHT22;5592;49.234;7.268;2023-06-04T05:59:49;27.40;69.50
11079;DHT22;5592;49.234;7.268;2023-06-04T06:02:15;27.90;70.70
11079;DHT22;5592;49.234;7.268;2023-06-04T06:04:40;28.20;67.60
11079;DHT22;5592;49.234;7.268;2023-06-04T06:07:06;28.00;70.20
11079;DHT22;5592;49.234;7.268;2023-06-04T06:09:32;27.80;68.80
11079;DHT22;5592;49.234;7.268;2023-06-04T06:11:57;27.80;68.10
11079;DHT22;5592;49.234;7.268;2023-06-04T06:14:23;28.50;66.10
11079;DHT22;5592;49.234;7.268;2023-06-04T06:16:49;29.10;66.30
11079;DHT22;5592;49.234;7.268;2023-06-04T06:19:15;29.30;63.40
11079;DHT22;5592;49.234;7.268;2023-06-04T06:21:40;28.40;65.40
11079;DHT22;5592;49.234;7.268;2023-06-04T06:24:06;27.20;63.30
11079;DHT22;5592;49.234;7.268;2023-06-04T06:26:31;25.90;64.20
11079;DHT22;5592;49.234;7.268;2023-06-04T06:28:57;25.60;66.20
11079;DHT22;5592;49.234;7.268;2023-06-04T06:31:23;25.40;64.90
11079;DHT22;5592;49.234;7.268;2023-06-04T06:33:48;25.60;64.70
11079;DHT22;5592;49.234;7.268;2023-06-04T06:36:14;26.10;64.30
11079;DHT22;5592;49.234;7.268;2023-06-04T06:38:44;27.00;65.60
11079;DHT22;5592;49.234;7.268;2023-06-04T06:41:10;28.20;65.60
11079;DHT22;5592;49.234;7.268;2023-06-04T06:43:36;29.20;63.40
11079;DHT22;5592;49.234;7.268;2023-06-04T06:46:01;29.60;60.90
11079;DHT22;5592;49.234;7.268;2023-06-04T06:48:27;30.20;65.80
11079;DHT22;5592;49.234;7.268;2023-06-04T06:50:54;30.90;63.50
11079;DHT22;5592;49.234;7.268;2023-06-04T06:53:19;31.00;60.50
11079;DHT22;5592;49.234;7.268;2023-06-04T06:55:45;31.30;58.30
11079;DHT22;5592;49.234;7.268;2023-06-04T06:58:11;31.60;58.90
11079;DHT22;5592;49.234;7.268;2023-06-04T07:00:36;31.20;57.40
11079;DHT22;5592;49.234;7.268;2023-06-04T07:03:02;31.10;58.00
11079;DHT22;5592;49.234;7.268;2023-06-04T07:05:29;30.90;56.80
11079;DHT22;5592;49.234;7.268;2023-06-04T07:07:54;31.20;56.50
11079;DHT22;5592;49.234;7.268;2023-06-04T07:10:22;31.60;56.40
11079;DHT22;5592;49.234;7.268;2023-06-04T07:12:48;31.50;58.60
11079;DHT22;5592;49.234;7.268;2023-06-04T07:15:13;32.20;56.90
11079;DHT22;5592;49.234;7.268;2023-06-04T07:17:39;32.50;54.20
11079;DHT22;5592;49.234;7.268;2023-06-04T07:20:05;32.60;54.30
11079;DHT22;5592;49.234;7.268;2023-06-04T07:22:35;32.10;53.90
11079;DHT22;5592;49.234;7.268;2023-06-04T07:25:01;32.20;56.00
11079;DHT22;5592;49.234;7.268;2023-06-04T07:27:26;32.10;54.80
11079;DHT22;5592;49.234;7.268;2023-06-04T07:29:52;31.80;56.00
11079;DHT22;5592;49.234;7.268;2023-06-04T07:32:18;32.40;55.90
11079;DHT22;5592;49.234;7.268;2023-06-04T07:34:44;32.60;53.50
11079;DHT22;5592;49.234;7.268;2023-06-04T07:37:10;32.80;53.30
11079;DHT22;5592;49.234;7.268;2023-06-04T07:39:36;33.00;52.10
11079;DHT22;5592;49.234;7.268;2023-06-04T07:42:02;33.50;50.20
11079;DHT22;5592;49.234;7.268;2023-06-04T07:44:27;32.70;49.60
11079;DHT22;5592;49.234;7.268;2023-06-04T07:46:53;32.90;52.20
11079;DHT22;5592;49.234;7.268;2023-06-04T07:49:18;33.00;54.20
11079;DHT22;5592;49.234;7.268;2023-06-04T07:51:44;33.60;49.70
11079;DHT22;5592;49.234;7.268;2023-06-04T07:54:10;34.60;48.50
11079;DHT22;5592;49.234;7.268;2023-06-04T07:56:35;34.80;51.30
11079;DHT22;5592;49.234;7.268;2023-06-04T07:59:01;35.10;49.70
11079;DHT22;5592;49.234;7.268;2023-06-04T08:01:27;35.60;49.50
11079;DHT22;5592;49.234;7.268;2023-06-04T08:03:52;34.80;50.30
11079;DHT22;5592;49.234;7.268;2023-06-04T08:06:18;35.30;49.30
11079;DHT22;5592;49.234;7.268;2023-06-04T08:08:44;35.60;47.30
11079;DHT22;5592;49.234;7.268;2023-06-04T08:11:11;35.70;52.60
11079;DHT22;5592;49.234;7.268;2023-06-04T08:13:37;35.80;48.70
11079;DHT22;5592;49.234;7.268;2023-06-04T08:16:02;35.70;50.10
11079;DHT22;5592;49.234;7.268;2023-06-04T08:18:28;36.00;46.50
11079;DHT22;5592;49.234;7.268;2023-06-04T08:20:54;36.20;48.60
11079;DHT22;5592;49.234;7.268;2023-06-04T08:23:20;36.00;47.60
11079;DHT22;5592;49.234;7.268;2023-06-04T08:25:48;35.80;50.20
11079;DHT22;5592;49.234;7.268;2023-06-04T08:28:14;35.80;50.10
11079;DHT22;5592;49.234;7.268;2023-06-04T08:30:42;34.90;50.70
11079;DHT22;5592;49.234;7.268;2023-06-04T08:33:08;34.80;50.50
11079;DHT22;5592;49.234;7.268;2023-06-04T08:35:33;35.20;49.10
11079;DHT22;5592;49.234;7.268;2023-06-04T08:37:59;34.90;48.90
11079;DHT22;5592;49.234;7.268;2023-06-04T08:40:25;34.80;48.40
11079;DHT22;5592;49.234;7.268;2023-06-04T08:42:51;34.80;48.20
11079;DHT22;5592;49.234;7.268;2023-06-04T08:45:23;34.30;49.30
11079;DHT22;5592;49.234;7.268;2023-06-04T08:47:50;34.20;47.70
11079;DHT22;5592;49.234;7.268;2023-06-04T08:50:18;34.10;49.20
11079;DHT22;5592;49.234;7.268;2023-06-04T08:52:44;34.20;48.80
11079;DHT22;5592;49.234;7.268;2023-06-04T08:55:11;34.10;50.00
11079;DHT22;5592;49.234;7.268;2023-06-04T08:57:39;33.60;49.40
11079;DHT22;5592;49.234;7.268;2023-06-04T09:00:07;33.70;48.60
11079;DHT22;5592;49.234;7.268;2023-06-04T09:02:37;34.00;48.80
11079;DHT22;5592;49.234;7.268;2023-06-04T09:05:04;33.80;51.10
11079;DHT22;5592;49.234;7.268;2023-06-04T09:07:31;34.00;47.90
11079;DHT22;5592;49.234;7.268;2023-06-04T09:09:58;33.50;49.90
11079;DHT22;5592;49.234;7.268;2023-06-04T09:12:24;33.30;51.50
11079;DHT22;5592;49.234;7.268;2023-06-04T09:14:51;34.50;50.20
11079;DHT22;5592;49.234;7.268;2023-06-04T09:17:25;34.80;50.80
11079;DHT22;5592;49.234;7.268;2023-06-04T09:19:52;34.90;47.60
11079;DHT22;5592;49.234;7.268;2023-06-04T09:22:18;35.10;48.10
11079;DHT22;5592;49.234;7.268;2023-06-04T09:24:45;35.80;48.80
11079;DHT22;5592;49.234;7.268;2023-06-04T09:27:19;35.60;47.20
11079;DHT22;5592;49.234;7.268;2023-06-04T09:29:55;35.60;49.10
11079;DHT22;5592;49.234;7.268;2023-06-04T09:32:25;35.40;48.10
11079;DHT22;5592;49.234;7.268;2023-06-04T09:34:56;34.80;46.70
11079;DHT22;5592;49.234;7.268;2023-06-04T09:37:34;34.40;48.80
11079;DHT22;5592;49.234;7.268;2023-06-04T09:39:59;34.50;47.30
11079;DHT22;5592;49.234;7.268;2023-06-04T09:42:26;34.30;48.30
11079;DHT22;5592;49.234;7.268;2023-06-04T09:44:52;34.00;49.10
11079;DHT22;5592;49.234;7.268;2023-06-04T09:47:17;34.30;49.40
11079;DHT22;5592;49.234;7.268;2023-06-04T09:49:47;34.70;48.40
11079;DHT22;5592;49.234;7.268;2023-06-04T09:52:13;35.30;45.50
11079;DHT22;5592;49.234;7.268;2023-06-04T09:54:40;35.20;45.30
11079;DHT22;5592;49.234;7.268;2023-06-04T09:57:20;35.00;46.40
11079;DHT22;5592;49.234;7.268;2023-06-04T09:59:49;34.90;48.00
11079;DHT22;5592;49.234;7.268;2023-06-04T10:02:21;34.70;45.70
11079;DHT22;5592;49.234;7.268;2023-06-04T10:04:54;34.80;50.10
11079;DHT22;5592;49.234;7.268;2023-06-04T10:07:23;33.80;47.30
11079;DHT22;5592;49.234;7.268;2023-06-04T10:09:50;32.20;48.30
11079;DHT22;5592;49.234;7.268;2023-06-04T10:12:16;31.80;49.20
11079;DHT22;5592;49.234;7.268;2023-06-04T10:14:50;32.00;52.10
11079;DHT22;5592;49.234;7.268;2023-06-04T10:17:23;32.20;49.10
11079;DHT22;5592;49.234;7.268;2023-06-04T10:19:50;31.90;48.30
11079;DHT22;5592;49.234;7.268;2023-06-04T10:22:23;32.00;48.50
11079;DHT22;5592;49.234;7.268;2023-06-04T10:24:49;32.50;48.50
11079;DHT22;5592;49.234;7.268;2023-06-04T10:27:17;33.10;49.70
11079;DHT22;5592;49.234;7.268;2023-06-04T10:29:43;33.10;48.80
11079;DHT22;5592;49.234;7.268;2023-06-04T10:32:10;33.60;48.60
11079;DHT22;5592;49.234;7.268;2023-06-04T10:34:36;33.90;47.40
11079;DHT22;5592;49.234;7.268;2023-06-04T10:37:01;33.20;47.50
11079;DHT22;5592;49.234;7.268;2023-06-04T10:39:29;33.00;50.80
11079;DHT22;5592;49.234;7.268;2023-06-04T10:42:02;32.80;50.90
11079;DHT22;5592;49.234;7.268;2023-06-04T10:44:29;33.00;48.10
11079;DHT22;5592;49.234;7.268;2023-06-04T10:46:55;33.20;48.90
11079;DHT22;5592;49.234;7.268;2023-06-04T10:49:28;32.80;48.10
11079;DHT22;5592;49.234;7.268;2023-06-04T10:51:54;32.80;51.70
11079;DHT22;5592;49.234;7.268;2023-06-04T10:54:28;33.50;47.90
11079;DHT22;5592;49.234;7.268;2023-06-04T10:56:54;32.70;47.80
11079;DHT22;5592;49.234;7.268;2023-06-04T10:59:20;31.90;49.10
11079;DHT22;5592;49.234;7.268;2023-06-04T11:01:46;31.80;50.80
11079;DHT22;5592;49.234;7.268;2023-06-04T11:04:23;32.00;50.60
11079;DHT22;5592;49.234;7.268;2023-06-04T11:07:03;31.70;46.10
11079;DHT22;5592;49.234;7.268;2023-06-04T11:09:30;31.00;46.70
11079;DHT22;5592;49.234;7.268;2023-06-04T11:11:59;31.10;50.30
11079;DHT22;5592;49.234;7.268;2023-06-04T11:14:25;31.10;47.10
11079;DHT22;5592;49.234;7.268;2023-06-04T11:16:51;30.30;45.50
11079;DHT22;5592;49.234;7.268;2023-06-04T11:19:17;29.40;48.00
11079;DHT22;5592;49.234;7.268;2023-06-04T11:21:43;28.60;48.50
11079;DHT22;5592;49.234;7.268;2023-06-04T11:24:12;28.50;48.70
11079;DHT22;5592;49.234;7.268;2023-06-04T11:26:37;28.70;47.20
11079;DHT22;5592;49.234;7.268;2023-06-04T11:29:08;28.40;47.30
11079;DHT22;5592;49.234;7.268;2023-06-04T11:31:44;27.10;48.20
11079;DHT22;5592;49.234;7.268;2023-06-04T11:34:11;27.10;48.20
11079;DHT22;5592;49.234;7.268;2023-06-04T11:36:47;26.90;50.90
11079;DHT22;5592;49.234;7.268;2023-06-04T11:39:15;27.70;48.60
11079;DHT22;5592;49.234;7.268;2023-06-04T11:41:41;27.50;48.30
11079;DHT22;5592;49.234;7.268;2023-06-04T11:44:07;27.10;48.20
11079;DHT22;5592;49.234;7.268;2023-06-04T11:46:40;27.40;49.40
11079;DHT22;5592;49.234;7.268;2023-06-04T11:49:06;27.30;49.10
11079;DHT22;5592;49.234;7.268;2023-06-04T11:51:32;27.60;48.50
11079;DHT22;5592;49.234;7.268;2023-06-04T11:53:58;27.90;48.60
11079;DHT22;5592;49.234;7.268;2023-06-04T11:56:24;28.00;51.20
11079;DHT22;5592;49.234;7.268;2023-06-04T11:58:51;28.30;47.40
11079;DHT22;5592;49.234;7.268;2023-06-04T12:01:17;28.30;48.90
11079;DHT22;5592;49.234;7.268;2023-06-04T12:03:43;28.40;49.40
11079;DHT22;5592;49.234;7.268;2023-06-04T12:06:14;28.00;48.20
11079;DHT22;5592;49.234;7.268;2023-06-04T12:08:51;27.70;49.20
11079;DHT22;5592;49.234;7.268;2023-06-04T12:11:30;27.80;48.90
11079;DHT22;5592;49.234;7.268;2023-06-04T12:14:03;27.50;49.40
11079;DHT22;5592;49.234;7.268;2023-06-04T12:16:30;27.20;49.30
11079;DHT22;5592;49.234;7.268;2023-06-04T12:19:09;27.20;47.90
11079;DHT22;5592;49.234;7.268;2023-06-04T12:21:35;27.40;50.10
11079;DHT22;5592;49.234;7.268;2023-06-04T12:26:34;27.30;54.00
11079;DHT22;5592;49.234;7.268;2023-06-04T12:29:09;27.50;51.50
11079;DHT22;5592;49.234;7.268;2023-06-04T12:31:38;27.50;49.80
11079;DHT22;5592;49.234;7.268;2023-06-04T12:34:04;27.40;49.30
11079;DHT22;5592;49.234;7.268;2023-06-04T12:36:30;27.50;53.10
11079;DHT22;5592;49.234;7.268;2023-06-04T12:38:58;27.30;52.90
11079;DHT22;5592;49.234;7.268;2023-06-04T12:41:24;27.10;51.40
11079;DHT22;5592;49.234;7.268;2023-06-04T12:43:50;27.10;49.70
11079;DHT22;5592;49.234;7.268;2023-06-04T12:46:16;26.70;50.60
11079;DHT22;5592;49.234;7.268;2023-06-04T12:48:42;26.60;52.80
11079;DHT22;5592;49.234;7.268;2023-06-04T12:51:09;26.60;54.40
11079;DHT22;5592;49.234;7.268;2023-06-04T12:53:38;26.60;53.80
11079;DHT22;5592;49.234;7.268;2023-06-04T12:56:04;26.70;52.90
11079;DHT22;5592;49.234;7.268;2023-06-04T12:58:29;27.20;52.90
11079;DHT22;5592;49.234;7.268;2023-06-04T13:00:55;27.20;51.60
11079;DHT22;5592;49.234;7.268;2023-06-04T13:03:21;27.10;53.50
11079;DHT22;5592;49.234;7.268;2023-06-04T13:05:46;27.00;51.00
11079;DHT22;5592;49.234;7.268;2023-06-04T13:08:12;26.80;51.70
11079;DHT22;5592;49.234;7.268;2023-06-04T13:10:37;27.00;50.90
11079;DHT22;5592;49.234;7.268;2023-06-04T13:13:03;27.00;51.50
11079;DHT22;5592;49.234;7.268;2023-06-04T13:15:28;27.00;52.80
11079;DHT22;5592;49.234;7.268;2023-06-04T13:17:55;27.00;51.70
11079;DHT22;5592;49.234;7.268;2023-06-04T13:20:20;26.60;51.80
11079;DHT22;5592;49.234;7.268;2023-06-04T13:22:46;26.00;52.80
11079;DHT22;5592;49.234;7.268;2023-06-04T13:25:12;26.20;53.70
11079;DHT22;5592;49.234;7.268;2023-06-04T13:27:38;26.30;54.00
11079;DHT22;5592;49.234;7.268;2023-06-04T13:30:04;26.40;55.00
11079;DHT22;5592;49.234;7.268;2023-06-04T13:32:31;26.40;55.30
11079;DHT22;5592;49.234;7.268;2023-06-04T13:34:56;26.10;57.30
11079;DHT22;5592;49.234;7.268;2023-06-04T13:37:22;26.20;55.90
11079;DHT22;5592;49.234;7.268;2023-06-04T13:39:48;26.30;58.20
11079;DHT22;5592;49.234;7.268;2023-06-04T13:42:13;26.20;53.50
11079;DHT22;5592;49.234;7.268;2023-06-04T13:44:39;26.00;55.10
11079;DHT22;5592;49.234;7.268;2023-06-04T13:47:04;26.00;57.70
11079;DHT22;5592;49.234;7.268;2023-06-04T13:49:34;26.10;56.00
11079;DHT22;5592;49.234;7.268;2023-06-04T13:52:00;26.10;53.80
11079;DHT22;5592;49.234;7.268;2023-06-04T13:54:26;25.90;57.50
11079;DHT22;5592;49.234;7.268;2023-06-04T13:56:51;25.80;57.20
11079;DHT22;5592;49.234;7.268;2023-06-04T13:59:17;25.90;55.50
11079;DHT22;5592;49.234;7.268;2023-06-04T14:01:42;25.90;56.70
11079;DHT22;5592;49.234;7.268;2023-06-04T14:04:08;25.80;54.30
11079;DHT22;5592;49.234;7.268;2023-06-04T14:06:35;25.70;55.00
11079;DHT22;5592;49.234;7.268;2023-06-04T14:09:01;25.80;55.90
11079;DHT22;5592;49.234;7.268;2023-06-04T14:11:26;25.80;55.50
11079;DHT22;5592;49.234;7.268;2023-06-04T14:13:52;25.70;57.50
11079;DHT22;5592;49.234;7.268;2023-06-04T14:16:17;25.60;55.80
11079;DHT22;5592;49.234;7.268;2023-06-04T14:18:43;25.60;56.00
11079;DHT22;5592;49.234;7.268;2023-06-04T14:21:09;25.60;57.80
11079;DHT22;5592;49.234;7.268;2023-06-04T14:23:34;25.50;56.30
11079;DHT22;5592;49.234;7.268;2023-06-04T14:26:00;25.40;55.80
11079;DHT22;5592;49.234;7.268;2023-06-04T14:28:26;25.30;55.90
11079;DHT22;5592;49.234;7.268;2023-06-04T14:30:52;25.20;57.10
11079;DHT22;5592;49.234;7.268;2023-06-04T14:33:17;25.30;58.20
11079;DHT22;5592;49.234;7.268;2023-06-04T14:35:43;25.30;58.60
11079;DHT22;5592;49.234;7.268;2023-06-04T14:38:12;25.40;57.00
11079;DHT22;5592;49.234;7.268;2023-06-04T14:40:39;25.20;55.20
11079;DHT22;5592;49.234;7.268;2023-06-04T14:43:07;25.00;55.60
11079;DHT22;5592;49.234;7.268;2023-06-04T14:45:32;25.10;56.70
11079;DHT22;5592;49.234;7.268;2023-06-04T14:47:58;25.10;56.30
11079;DHT22;5592;49.234;7.268;2023-06-04T14:50:23;25.20;56.30
11079;DHT22;5592;49.234;7.268;2023-06-04T14:52:49;25.20;56.30
11079;DHT22;5592;49.234;7.268;2023-06-04T14:55:15;25.20;55.50
11079;DHT22;5592;49.234;7.268;2023-06-04T14:57:40;25.00;55.80
11079;DHT22;5592;49.234;7.268;2023-06-04T15:00:06;24.90;54.80
11079;DHT22;5592;49.234;7.268;2023-06-04T15:02:32;24.70;55.00
11079;DHT22;5592;49.234;7.268;2023-06-04T15:04:57;24.60;57.00
11079;DHT22;5592;49.234;7.268;2023-06-04T15:07:23;24.70;55.80
11079;DHT22;5592;49.234;7.268;2023-06-04T15:09:48;24.70;56.00
11079;DHT22;5592;49.234;7.268;2023-06-04T15:12:15;24.80;55.80
11079;DHT22;5592;49.234;7.268;2023-06-04T15:14:42;24.80;55.90
11079;DHT22;5592;49.234;7.268;2023-06-04T15:17:08;24.80;56.90
11079;DHT22;5592;49.234;7.268;2023-06-04T15:19:34;24.90;56.10
11079;DHT22;5592;49.234;7.268;2023-06-04T15:22:00;24.80;56.10
11079;DHT22;5592;49.234;7.268;2023-06-04T15:24:25;24.70;57.40
11079;DHT22;5592;49.234;7.268;2023-06-04T15:26:51;24.80;54.30
11079;DHT22;5592;49.234;7.268;2023-06-04T15:29:16;24.80;55.30
11079;DHT22;5592;49.234;7.268;2023-06-04T15:31:42;24.80;54.70
11079;DHT22;5592;49.234;7.268;2023-06-04T15:34:10;24.70;55.90
11079;DHT22;5592;49.234;7.268;2023-06-04T15:36:36;24.60;55.20
11079;DHT22;5592;49.234;7.268;2023-06-04T15:39:04;24.60;55.40
11079;DHT22;5592;49.234;7.268;2023-06-04T15:41:30;24.60;57.00
11079;DHT22;5592;49.234;7.268;2023-06-04T15:43:55;24.50;55.30
11079;DHT22;5592;49.234;7.268;2023-06-04T15:46:24;24.30;55.70
11079;DHT22;5592;49.234;7.268;2023-06-04T15:48:51;24.30;54.30
11079;DHT22;5592;49.234;7.268;2023-06-04T15:51:16;24.30;56.00